Time;durP1;ratioP1;P1;durP2;ratioP2;P2;SDS_P1;SDS_P2;PMS_P1;PMS_P2;Temp;Humidity;BMP_temperature;BMP_pressure;BME280_temperature;BME280_humidity;BME280_pressure;Samples;Min_cycle;Max_cycle;Signal;HPM_P1;HPM_P2
2022/09/12 00:01:37;;;;;;;10.70;6.72;;;;;;;11.05;100.00;97504.66;5020994;28;20359;-62
2022/09/12 00:04:03;;;;;;;12.10;7.25;;;;;;;10.90;100.00;97494.44;5027331;28;20038;-63
2022/09/12 00:06:35;;;;;;;11.90;8.23;;;;;;;10.81;100.00;97501.38;5027295;28;20084;-63
2022/09/12 00:09:05;;;;;;;;;;;;;;;10.72;100.00;97500.97;5028074;28;20045;-63
2022/09/12 00:11:37;;;;;;;10.95;7.07;;;;;;;10.70;100.00;97497.69;5027001;28;19921;-64
2022/09/12 00:14:06;;;;;;;11.30;7.50;;;;;;;10.66;100.00;97505.47;5025771;28;20064;-64
2022/09/12 00:16:34;;;;;;;9.43;7.68;;;;;;;10.67;100.00;97503.59;5032041;28;20538;-63
2022/09/12 00:19:03;;;;;;;12.35;8.30;;;;;;;10.63;100.00;97503.28;5036385;28;20140;-63
2022/09/12 00:21:32;;;;;;;14.75;8.00;;;;;;;10.52;100.00;97504.19;5046380;28;20051;-63
2022/09/12 00:23:59;;;;;;;12.35;8.40;;;;;;;10.53;100.00;97506.66;5038410;28;20496;-64
2022/09/12 00:26:25;;;;;;;14.07;8.50;;;;;;;10.38;100.00;97501.81;5031866;28;20136;-63
2022/09/12 00:28:52;;;;;;;11.95;8.07;;;;;;;10.23;100.00;97504.28;5027097;28;20509;-63
2022/09/12 00:31:22;;;;;;;13.60;8.95;;;;;;;10.24;100.00;97505.91;5023284;28;20061;-63
2022/09/12 00:33:50;;;;;;;14.17;9.13;;;;;;;10.22;100.00;97495.34;5027200;28;20037;-62
2022/09/12 00:36:19;;;;;;;13.80;9.73;;;;;;;10.23;100.00;97499.69;5026681;28;20052;-63
2022/09/12 00:38:47;;;;;;;12.52;8.98;;;;;;;10.23;100.00;97498.84;5026909;28;20052;-64
2022/09/12 00:41:19;;;;;;;13.25;9.55;;;;;;;10.27;100.00;97498.13;5026660;28;20051;-63
2022/09/12 00:43:49;;;;;;;14.00;8.88;;;;;;;10.28;100.00;97497.06;5006821;28;20046;-63
2022/09/12 00:46:28;;;;;;;16.25;9.63;;;;;;;10.41;100.00;97490.50;5025623;28;20037;-63
2022/09/12 00:49:10;;;;;;;14.48;9.52;;;;;;;10.46;100.00;97497.88;5026092;28;20128;-63
2022/09/12 00:51:37;;;;;;;16.05;9.82;;;;;;;10.49;100.00;97485.75;5006859;28;20041;-62
2022/09/12 00:54:12;;;;;;;11.32;8.82;;;;;;;10.37;100.00;97492.06;5005889;28;20157;-62
2022/09/12 00:56:42;;;;;;;15.15;10.18;;;;;;;10.51;100.00;97489.03;5024225;28;20076;-63
2022/09/12 00:59:15;;;;;;;13.40;9.52;;;;;;;10.60;100.00;97481.28;5026874;28;20045;-62
2022/09/12 01:01:45;;;;;;;15.07;9.90;;;;;;;10.73;100.00;97480.91;5024974;28;20124;-63
2022/09/12 01:04:12;;;;;;;13.13;9.65;;;;;;;10.85;100.00;97472.72;5034442;28;20456;-63
2022/09/12 01:06:42;;;;;;;12.23;9.45;;;;;;;10.93;100.00;97474.97;5022218;28;20049;-63
2022/09/12 01:09:12;;;;;;;14.10;9.90;;;;;;;10.91;100.00;97468.19;5018227;28;20517;-63
2022/09/12 01:11:39;;;;;;;12.40;9.50;;;;;;;10.90;100.00;97464.63;5007046;28;20116;-63
2022/09/12 01:14:07;;;;;;;14.52;9.73;;;;;;;10.89;100.00;97465.72;5021533;28;20048;-63
2022/09/12 01:16:36;;;;;;;15.63;9.80;;;;;;;10.93;100.00;97463.31;5041026;28;20190;-63
2022/09/12 01:19:23;;;;;;;12.27;9.48;;;;;;;11.00;100.00;97458.53;5027475;28;20053;-63
2022/09/12 01:22:02;;;;;;;13.43;9.65;;;;;;;10.74;100.00;97449.25;5025433;28;20132;-63
2022/09/12 01:24:52;;;;;;;13.30;9.55;;;;;;;10.65;100.00;97446.97;5023699;28;20040;-63
2022/09/12 01:27:27;;;;;;;16.75;10.43;;;;;;;10.65;100.00;97443.47;5023815;28;20103;-62
2022/09/12 01:30:17;;;;;;;13.43;9.48;;;;;;;10.66;100.00;97450.53;5025750;28;20053;-63
2022/09/12 01:33:16;;;;;;;14.05;10.27;;;;;;;10.71;100.00;97447.03;5025935;28;20120;-63
2022/09/12 01:35:51;;;;;;;12.68;8.57;;;;;;;10.70;100.00;97442.69;5023962;28;20061;-63
2022/09/12 01:38:26;;;;;;;12.43;8.70;;;;;;;10.66;100.00;97445.09;5025976;28;20120;-63
2022/09/12 01:41:20;;;;;;;12.95;9.13;;;;;;;10.49;100.00;97445.97;5025667;28;20041;-63
2022/09/12 01:43:57;;;;;;;11.15;8.32;;;;;;;10.49;100.00;97440.56;5005967;28;20469;-63
2022/09/12 01:46:41;;;;;;;14.57;9.40;;;;;;;10.41;100.00;97435.53;5029406;28;20136;-62
2022/09/12 01:49:21;;;;;;;11.27;8.10;;;;;;;10.43;100.00;97446.91;5025588;28;20204;-63
2022/09/12 01:52:08;;;;;;;12.55;9.00;;;;;;;10.44;100.00;97432.38;5025408;28;20053;-63
2022/09/12 01:54:42;;;;;;;13.27;8.98;;;;;;;10.34;100.00;97429.47;5025165;28;20050;-62
2022/09/12 01:57:19;;;;;;;11.82;8.88;;;;;;;10.37;100.00;97428.97;5025675;28;20047;-62
2022/09/12 01:59:50;;;;;;;13.30;8.48;;;;;;;10.37;100.00;97432.50;5024507;28;20142;-63
2022/09/12 02:02:35;;;;;;;12.75;8.23;;;;;;;10.34;100.00;97438.41;5029200;28;20435;-63
2022/09/12 02:05:17;;;;;;;16.38;8.43;;;;;;;10.45;100.00;97433.16;5010060;28;20038;-62
2022/09/12 02:07:46;;;;;;;10.90;8.23;;;;;;;10.49;100.00;97432.44;5027352;28;20144;-62
2022/09/12 02:10:18;;;;;;;11.68;8.18;;;;;;;10.47;100.00;97433.75;5017956;28;20156;-63
2022/09/12 02:12:55;;;;;;;12.00;9.00;;;;;;;10.33;100.00;97422.41;5033930;28;20127;-63
2022/09/12 02:15:28;;;;;;;12.95;8.82;;;;;;;10.16;100.00;97420.56;5049832;28;20047;-62
2022/09/12 02:17:57;;;;;;;12.80;8.73;;;;;;;10.13;100.00;97421.88;5044876;28;20132;-63
2022/09/12 02:20:32;;;;;;;14.90;9.45;;;;;;;10.19;100.00;97416.53;5028909;28;20320;-62
2022/09/12 02:23:25;;;;;;;13.02;8.57;;;;;;;10.19;100.00;97414.66;5029100;28;20049;-63
2022/09/12 02:25:59;;;;;;;15.35;8.93;;;;;;;10.30;100.00;97418.31;5029383;28;20115;-62
2022/09/12 02:28:31;;;;;;;12.02;8.27;;;;;;;10.25;100.00;97419.06;5029267;28;20539;-63
2022/09/12 02:31:09;;;;;;;14.10;7.95;;;;;;;10.31;100.00;97414.53;5029003;28;20120;-62
2022/09/12 02:33:48;;;;;;;12.55;8.43;;;;;;;10.38;100.00;97414.38;5029553;28;20125;-62
2022/09/12 02:36:22;;;;;;;10.75;8.07;;;;;;;10.38;100.00;97414.38;5028880;28;20534;-63
2022/09/12 02:38:49;;;;;;;11.15;8.60;;;;;;;10.27;100.00;97416.94;5029296;28;20152;-63
2022/09/12 02:41:19;;;;;;;13.05;8.38;;;;;;;10.30;100.00;97414.78;5028075;28;20096;-62
2022/09/12 02:43:49;;;;;;;12.13;8.63;;;;;;;10.22;100.00;97411.47;5037639;28;20037;-63
2022/09/12 02:46:22;;;;;;;11.98;8.07;;;;;;;10.26;100.00;97414.47;5028857;28;20490;-62
2022/09/12 02:48:48;;;;;;;12.18;9.05;;;;;;;10.21;100.00;97409.81;5027947;28;20464;-62
2022/09/12 02:51:16;;;;;;;12.02;7.65;;;;;;;10.21;100.00;97407.09;5026810;28;20072;-62
2022/09/12 02:53:49;;;;;;;11.35;7.53;;;;;;;10.00;100.00;97397.88;5027775;28;20041;-62
2022/09/12 02:56:33;;;;;;;11.05;7.90;;;;;;;9.62;100.00;97401.06;5015283;28;20077;-62
2022/09/12 02:59:06;;;;;;;13.05;9.10;;;;;;;9.55;100.00;97405.81;5009308;28;20122;-63
2022/09/12 03:02:00;;;;;;;11.93;8.63;;;;;;;9.23;100.00;97406.34;5011346;28;20463;-62
2022/09/12 03:04:57;;;;;;;14.32;8.88;;;;;;;9.17;100.00;97407.31;5043297;28;20099;-62
2022/09/12 03:07:56;;;;;;;14.63;9.70;;;;;;;9.28;100.00;97405.63;5045544;28;20045;-62
2022/09/12 03:10:50;;;;;;;15.52;9.60;;;;;;;9.37;100.00;97406.88;5030178;28;20076;-63
2022/09/12 03:13:19;;;;;;;16.30;9.82;;;;;;;9.51;100.00;97404.66;5027833;28;20033;-63
2022/09/12 03:16:04;;;;;;;13.18;9.52;;;;;;;9.56;100.00;97410.16;5028566;28;20128;-63
2022/09/12 03:19:09;;;;;;;11.48;8.77;;;;;;;9.65;100.00;97405.16;5027386;28;20208;-62
2022/09/12 03:22:01;;;;;;;11.77;8.63;;;;;;;9.79;100.00;97404.84;5006569;28;20057;-62
2022/09/12 03:24:52;;;;;;;12.82;8.77;;;;;;;9.91;100.00;97400.16;5028049;28;20074;-62
2022/09/12 03:27:26;;;;;;;13.38;8.90;;;;;;;9.87;100.00;97402.56;5008314;28;20124;-62
2022/09/12 03:29:54;;;;;;;12.15;8.45;;;;;;;9.68;100.00;97411.97;5008366;28;20518;-63
2022/09/12 03:32:46;;;;;;;14.30;9.02;;;;;;;9.62;100.00;97408.38;5008028;28;20108;-62
2022/09/12 03:35:14;;;;;;;11.88;9.10;;;;;;;9.61;100.00;97402.16;5008105;28;20117;-62
2022/09/12 03:37:47;;;;;;;11.85;8.35;;;;;;;9.56;100.00;97398.53;5008520;28;20053;-63
2022/09/12 03:40:14;;;;;;;13.57;9.98;;;;;;;9.46;100.00;97401.88;5008019;28;20569;-62
2022/09/12 03:42:41;;;;;;;13.18;10.10;;;;;;;9.43;100.00;97395.06;5030739;28;20045;-62
2022/09/12 03:45:08;;;;;;;13.68;9.65;;;;;;;9.39;100.00;97402.03;5041127;28;20045;-63
2022/09/12 03:47:34;;;;;;;13.40;9.70;;;;;;;9.42;100.00;97406.13;5027351;28;20052;-62
2022/09/12 03:50:02;;;;;;;13.90;9.23;;;;;;;9.36;100.00;97402.50;5027965;28;20041;-63
2022/09/12 03:52:29;;;;;;;19.73;10.70;;;;;;;9.36;100.00;97410.63;5026553;28;20471;-63
2022/09/12 03:54:55;;;;;;;14.52;10.65;;;;;;;9.35;100.00;97408.97;5027396;28;20037;-63
2022/09/12 03:57:22;;;;;;;16.00;10.82;;;;;;;9.42;100.00;97409.66;5027729;28;20103;-62
2022/09/12 03:59:49;;;;;;;15.90;9.85;;;;;;;9.49;100.00;97407.63;5027266;28;20140;-63
2022/09/12 04:02:16;;;;;;;14.02;9.63;;;;;;;9.50;100.00;97406.56;5027098;28;20044;-62
2022/09/12 04:04:43;;;;;;;14.93;9.57;;;;;;;9.51;100.00;97401.94;5027315;28;20612;-63
2022/09/12 04:07:10;;;;;;;14.82;9.82;;;;;;;9.56;100.00;97404.78;5027284;28;20643;-62
2022/09/12 04:09:36;;;;;;;15.18;9.77;;;;;;;9.61;100.00;97398.59;5027619;28;20049;-63
2022/09/12 04:12:03;;;;;;;13.65;9.82;;;;;;;9.56;100.00;97401.22;5026609;28;20490;-63
2022/09/12 04:14:29;;;;;;;15.63;9.50;;;;;;;9.48;100.00;97405.97;5027650;28;20137;-62
2022/09/12 04:16:56;;;;;;;12.18;9.10;;;;;;;9.52;100.00;97397.38;5027010;28;20049;-62
2022/09/12 04:19:24;;;;;;;12.88;8.88;;;;;;;9.55;100.00;97403.09;5037294;28;20500;-62
2022/09/12 04:21:50;;;;;;;12.13;8.25;;;;;;;9.59;100.00;97398.03;5046745;28;20136;-62
2022/09/12 04:24:16;;;;;;;14.18;9.07;;;;;;;9.57;100.00;97400.16;5046452;28;20318;-63
2022/09/12 04:26:43;;;;;;;13.55;8.80;;;;;;;9.50;100.00;97406.56;5029334;28;20128;-61
2022/09/12 04:29:13;;;;;;;11.80;8.38;;;;;;;9.53;100.00;97401.72;5025989;28;20045;-62
2022/09/12 04:31:40;;;;;;;12.70;8.38;;;;;;;9.56;100.00;97404.78;5023348;28;20568;-62
2022/09/12 04:34:07;;;;;;;18.92;9.75;;;;;;;9.64;100.00;97406.25;5026883;28;20059;-62
2022/09/12 04:36:34;;;;;;;11.73;8.35;;;;;;;9.56;100.00;97398.53;5026640;28;20440;-62
2022/09/12 04:39:02;;;;;;;13.10;8.88;;;;;;;9.46;100.00;97400.00;5027416;28;20049;-62
2022/09/12 04:41:32;;;;;;;13.63;9.27;;;;;;;9.46;100.00;97400.00;5028869;28;20051;-63
2022/09/12 04:44:03;;;;;;;12.18;8.85;;;;;;;9.54;100.00;97401.47;5047240;28;20076;-62
2022/09/12 04:46:32;;;;;;;14.25;8.90;;;;;;;9.51;100.00;97404.66;5022004;28;20138;-62
2022/09/12 04:48:58;;;;;;;12.63;9.27;;;;;;;9.50;100.00;97395.75;5024443;28;20334;-62
2022/09/12 04:51:30;;;;;;;13.52;8.88;;;;;;;9.55;100.00;97396.91;5023896;28;20132;-62
2022/09/12 04:53:59;;;;;;;12.52;9.10;;;;;;;9.56;100.00;97393.13;5025589;28;20625;-62
2022/09/12 04:56:27;;;;;;;13.38;8.98;;;;;;;9.49;100.00;97390.59;5014926;28;20128;-61
2022/09/12 04:58:57;;;;;;;12.82;8.52;;;;;;;9.36;100.00;97392.53;5024996;28;20073;-63
2022/09/12 05:01:23;;;;;;;13.70;9.50;;;;;;;9.35;100.00;97385.50;5024379;28;20041;-61
2022/09/12 05:03:50;;;;;;;13.55;8.80;;;;;;;9.42;100.00;97390.75;5023674;28;20519;-61
2022/09/12 05:06:20;;;;;;;13.98;9.65;;;;;;;9.36;100.00;97394.41;5024755;28;20174;-61
2022/09/12 05:08:47;;;;;;;13.07;8.70;;;;;;;9.37;100.00;97383.34;5025046;28;20104;-61
2022/09/12 05:11:20;;;;;;;11.30;8.75;;;;;;;9.38;100.00;97395.00;5024337;28;20077;-61
2022/09/12 05:13:52;;;;;;;14.10;9.98;;;;;;;9.33;100.00;97395.72;5020798;28;20523;-63
2022/09/12 05:16:20;;;;;;;13.30;9.48;;;;;;;9.35;100.00;97398.16;5023458;28;20300;-62
2022/09/12 05:18:47;;;;;;;12.93;8.18;;;;;;;9.44;100.00;97399.41;5029391;28;20044;-61
2022/09/12 05:21:17;;;;;;;12.95;9.02;;;;;;;9.68;100.00;97403.84;5024589;28;20152;-62
2022/09/12 05:23:44;;;;;;;15.60;9.18;;;;;;;9.56;100.00;97399.38;5024299;28;20471;-62
2022/09/12 05:26:15;;;;;;;12.80;9.02;;;;;;;9.52;100.00;97402.78;5023529;28;20049;-62
2022/09/12 05:28:41;;;;;;;13.30;9.03;;;;;;;9.43;100.00;97408.59;5017194;28;20049;-62
2022/09/12 05:31:14;;;;;;;12.63;8.60;;;;;;;9.53;100.00;97402.53;5023602;28;20382;-62
2022/09/12 05:33:43;;;;;;;15.77;10.25;;;;;;;9.60;100.00;97405.09;5025423;28;20367;-61
2022/09/12 05:36:12;;;;;;;15.52;9.95;;;;;;;9.44;100.00;97402.13;5022207;28;20063;-62
2022/09/12 05:38:38;;;;;;;13.88;9.07;;;;;;;9.51;100.00;97412.75;5025051;28;20129;-63
2022/09/12 05:41:08;;;;;;;14.13;9.27;;;;;;;9.50;100.00;97408.44;5023235;28;20316;-62
2022/09/12 05:43:42;;;;;;;15.27;9.90;;;;;;;9.55;100.00;97408.50;5016731;28;20456;-62
2022/09/12 05:46:12;;;;;;;15.93;9.95;;;;;;;9.62;100.00;97408.38;5025281;28;20055;-63
2022/09/12 05:48:41;;;;;;;16.10;9.82;;;;;;;9.68;100.00;97406.56;5023222;28;20054;-63
2022/09/12 05:51:12;;;;;;;18.95;10.20;;;;;;;9.73;100.00;97412.06;5021576;28;20057;-63
2022/09/12 05:53:40;;;;;;;16.52;11.52;;;;;;;9.76;100.00;97406.97;5023235;28;20050;-63
2022/09/12 05:56:16;;;;;;;14.52;9.73;;;;;;;9.83;100.00;97398.69;5016627;28;20069;-63
2022/09/12 05:58:46;;;;;;;16.75;10.38;;;;;;;9.93;100.00;97403.47;5036620;28;20041;-63
2022/09/12 06:01:18;;;;;;;15.73;10.32;;;;;;;9.98;100.00;97400.81;5023395;28;20501;-63
2022/09/12 06:03:50;;;;;;;15.02;10.35;;;;;;;10.11;100.00;97399.69;5017102;28;20460;-63
2022/09/12 06:06:20;;;;;;;16.55;10.13;;;;;;;10.23;100.00;97406.84;5014916;28;20125;-62
2022/09/12 06:08:49;;;;;;;15.57;11.15;;;;;;;10.37;100.00;97402.75;5020481;28;20045;-62
2022/09/12 06:11:19;;;;;;;17.88;11.55;;;;;;;10.53;100.00;97406.50;5021212;28;20571;-62
2022/09/12 06:13:46;;;;;;;18.10;10.93;;;;;;;10.72;100.00;97398.03;5027347;28;20045;-62
2022/09/12 06:16:16;;;;;;;14.88;10.88;;;;;;;10.91;100.00;97403.16;5022824;28;20564;-62
2022/09/12 06:18:55;;;;;;;18.48;11.32;;;;;;;11.07;100.00;97398.72;5024948;28;20061;-62
2022/09/12 06:21:23;;;;;;;17.40;11.25;;;;;;;11.27;100.00;97400.81;5023360;28;20386;-62
2022/09/12 06:23:50;;;;;;;17.40;11.02;;;;;;;11.42;100.00;97393.91;5033162;28;20092;-63
2022/09/12 06:26:20;;;;;;;15.80;10.70;;;;;;;11.58;100.00;97397.59;5025815;28;20064;-63
2022/09/12 06:28:47;;;;;;;14.65;10.70;;;;;;;11.70;100.00;97397.41;5025435;28;20120;-62
2022/09/12 06:31:19;;;;;;;16.75;10.35;;;;;;;11.86;100.00;97394.84;5025236;28;20041;-62
2022/09/12 06:33:48;;;;;;;17.10;11.00;;;;;;;11.99;100.00;97397.09;5023970;28;20508;-63
2022/09/12 06:36:17;;;;;;;13.52;10.13;;;;;;;12.08;100.00;97395.56;5025161;28;20404;-63
2022/09/12 06:38:50;;;;;;;13.52;9.75;;;;;;;12.21;100.00;97388.03;5023091;28;20062;-63
2022/09/12 06:41:16;;;;;;;12.82;10.18;;;;;;;12.31;100.00;97393.50;5025148;28;20124;-63
2022/09/12 06:43:43;;;;;;;12.98;10.15;;;;;;;12.40;100.00;97390.31;5044350;28;20051;-61
2022/09/12 06:46:11;;;;;;;16.02;9.57;;;;;;;12.52;100.00;97393.63;5045312;28;20114;-63
2022/09/12 06:48:38;;;;;;;11.70;9.20;;;;;;;12.63;100.00;97388.25;5045136;28;20088;-63
2022/09/12 06:51:12;;;;;;;11.57;8.80;;;;;;;12.72;100.00;97392.09;5044541;28;20503;-63
2022/09/12 06:53:38;;;;;;;11.35;9.43;;;;;;;12.86;100.00;97395.94;5010400;28;20618;-63
2022/09/12 06:56:11;;;;;;;12.95;8.15;;;;;;;13.00;100.00;97395.44;5021889;28;20045;-62
2022/09/12 06:58:38;;;;;;;11.80;7.85;;;;;;;13.20;98.95;97386.50;5029139;28;20120;-63
2022/09/12 07:01:11;;;;;;;11.20;7.55;;;;;;;13.32;98.09;97394.44;5028048;28;20075;-62
2022/09/12 07:03:38;;;;;;;10.25;7.40;;;;;;;13.42;98.10;97399.09;5029041;28;20112;-64
2022/09/12 07:06:08;;;;;;;9.02;7.10;;;;;;;13.57;96.47;97392.06;5029056;28;20052;-63
2022/09/12 07:08:36;;;;;;;9.60;7.15;;;;;;;13.68;95.85;97387.44;5028770;28;20049;-62
2022/09/12 07:11:08;;;;;;;8.43;6.30;;;;;;;13.79;95.59;97392.59;5027947;28;20076;-63
2022/09/12 07:13:34;;;;;;;8.77;6.60;;;;;;;13.85;94.93;97396.13;5034118;28;20049;-63
2022/09/12 07:16:03;;;;;;;7.53;6.00;;;;;;;14.01;94.75;97396.13;5028441;28;20117;-63
2022/09/12 07:18:30;;;;;;;8.25;5.78;;;;;;;14.18;94.48;97399.38;5031117;28;20047;-63
2022/09/12 07:21:01;;;;;;;10.25;5.50;;;;;;;14.35;93.13;97397.41;5047936;28;20562;-63
2022/09/12 07:23:29;;;;;;;8.27;5.05;;;;;;;14.54;92.08;97397.66;5047718;28;20639;-63
2022/09/12 07:25:57;;;;;;;8.82;5.35;;;;;;;14.53;90.58;97396.03;5037292;28;20041;-63
2022/09/12 07:28:25;;;;;;;7.68;5.57;;;;;;;14.62;90.29;97391.63;5028779;28;20045;-63
2022/09/12 07:30:52;;;;;;;7.85;5.72;;;;;;;14.70;89.91;97391.06;5027637;28;20084;-63
2022/09/12 07:33:20;;;;;;;7.20;5.22;;;;;;;14.83;89.54;97397.03;5026739;28;20049;-63
2022/09/12 07:35:47;;;;;;;7.82;5.50;;;;;;;15.04;87.63;97384.09;5017733;28;20073;-62
2022/09/12 07:38:14;;;;;;;6.90;4.82;;;;;;;15.14;88.07;97396.06;5025198;28;20053;-64
2022/09/12 07:40:40;;;;;;;7.05;4.65;;;;;;;15.21;87.08;97391.94;5021731;28;20049;-63
2022/09/12 07:43:07;;;;;;;5.50;4.07;;;;;;;15.32;85.40;97394.59;5020861;28;20772;-63
2022/09/12 07:45:34;;;;;;;7.70;4.28;;;;;;;15.42;86.13;97386.34;5015323;28;20397;-62
2022/09/12 07:48:01;;;;;;;6.15;4.32;;;;;;;15.56;83.83;97388.44;5019887;28;20049;-63
2022/09/12 07:50:27;;;;;;;7.13;3.90;;;;;;;15.60;83.46;97389.50;5020200;28;20051;-62
2022/09/12 07:52:54;;;;;;;6.03;3.50;;;;;;;15.74;83.56;97387.72;5024883;28;20132;-62
2022/09/12 07:55:21;;;;;;;6.88;3.80;;;;;;;15.78;82.88;97381.72;5027677;28;20471;-63
2022/09/12 07:57:51;;;;;;;7.25;4.07;;;;;;;15.92;81.63;97387.34;5031890;28;20131;-62
2022/09/12 08:00:17;;;;;;;5.80;3.55;;;;;;;16.04;80.63;97382.34;5031554;28;20052;-62
2022/09/12 08:02:44;;;;;;;6.38;3.40;;;;;;;16.16;80.04;97383.84;5025808;28;20064;-62
2022/09/12 08:05:10;;;;;;;5.18;3.05;;;;;;;16.34;76.79;97387.78;5026028;28;20045;-62
2022/09/12 08:07:37;;;;;;;5.50;3.47;;;;;;;16.43;76.61;97385.22;5026642;28;20052;-63
2022/09/12 08:10:05;;;;;;;6.63;2.97;;;;;;;16.59;77.67;97386.66;5024977;28;20595;-63
2022/09/12 08:12:33;;;;;;;6.80;3.95;;;;;;;16.60;77.64;97390.22;5018463;28;20130;-62
2022/09/12 08:14:59;;;;;;;11.98;3.60;;;;;;;16.64;77.14;97391.28;5021370;28;20034;-63
2022/09/12 08:17:26;;;;;;;4.20;2.90;;;;;;;16.69;76.46;97391.19;5025082;28;20049;-62
2022/09/12 08:19:52;;;;;;;4.78;3.38;;;;;;;16.72;77.76;97390.63;5019000;28;20574;-62
2022/09/12 08:22:20;;;;;;;5.90;3.15;;;;;;;16.78;77.21;97394.91;5024202;28;20045;-62
2022/09/12 08:24:48;;;;;;;6.53;3.22;;;;;;;16.89;75.31;97394.81;5025520;28;20500;-62
2022/09/12 08:27:15;;;;;;;6.00;3.20;;;;;;;16.97;75.06;97394.16;5028215;28;20064;-62
2022/09/12 08:29:41;;;;;;;8.07;3.55;;;;;;;16.97;72.85;97394.16;5022020;28;20080;-62
2022/09/12 08:32:08;;;;;;;5.50;2.95;;;;;;;17.11;72.73;97390.72;5021869;28;20071;-62
2022/09/12 08:34:34;;;;;;;4.68;3.17;;;;;;;17.18;73.04;97393.09;5024806;28;20580;-61
2022/09/12 08:37:01;;;;;;;4.25;2.65;;;;;;;17.27;72.28;97389.41;5025454;28;20055;-61
2022/09/12 08:39:27;;;;;;;4.65;3.13;;;;;;;17.32;70.38;97393.97;5025005;28;20072;-62
2022/09/12 08:42:01;;;;;;;4.68;2.90;;;;;;;17.40;69.86;97387.84;5024969;28;20464;-62
2022/09/12 08:44:53;;;;;;;4.40;2.83;;;;;;;17.50;68.35;97386.03;5029971;28;20401;-63
2022/09/12 08:47:31;;;;;;;5.80;3.10;;;;;;;17.56;68.00;97384.88;5013816;28;20493;-63
2022/09/12 08:50:07;;;;;;;4.30;2.90;;;;;;;17.58;68.90;97381.84;5013908;28;20484;-63
2022/09/12 08:52:46;;;;;;;6.85;3.20;;;;;;;17.68;70.05;97382.50;5018545;28;20043;-63
2022/09/12 08:55:24;;;;;;;6.30;3.60;;;;;;;17.66;67.54;97381.16;5012335;28;20132;-63
2022/09/12 08:57:52;;;;;;;7.75;3.28;;;;;;;17.79;68.15;97385.88;5022159;28;20618;-63
2022/09/12 09:00:20;;;;;;;5.47;3.67;;;;;;;17.89;69.98;97384.91;5030554;28;20394;-63
2022/09/12 09:03:39;;;;;;;4.30;2.70;;;;;;;17.91;67.90;97381.88;5024042;28;20340;-63
2022/09/12 09:06:20;;;;;;;4.45;2.88;;;;;;;17.97;67.06;97386.13;4999633;28;20123;-62
2022/09/12 09:09:01;;;;;;;6.10;3.70;;;;;;;18.09;67.65;97382.94;5026291;28;20544;-62
2022/09/12 09:11:39;;;;;;;5.93;3.08;;;;;;;18.17;66.72;97381.44;5029146;28;20779;-63
2022/09/12 09:14:50;;;;;;;4.20;2.97;;;;;;;18.28;67.74;97382.06;5037698;28;20507;-62
2022/09/12 09:17:37;;;;;;;4.47;3.03;;;;;;;18.40;65.54;97378.81;5023087;28;20148;-63
2022/09/12 09:20:16;;;;;;;5.10;3.20;;;;;;;18.55;66.09;97381.28;5030253;28;20282;-62
2022/09/12 09:22:49;;;;;;;4.15;2.40;;;;;;;18.67;65.76;97377.19;5025754;28;20095;-63
2022/09/12 09:25:41;;;;;;;5.35;3.22;;;;;;;18.68;65.70;97376.06;5034909;28;20045;-61
2022/09/12 09:28:17;;;;;;;4.50;3.38;;;;;;;18.75;65.12;97379.22;5043411;28;20128;-62
2022/09/12 09:30:45;;;;;;;4.13;2.60;;;;;;;18.81;63.04;97375.28;5028959;28;20072;-62
2022/09/12 09:33:20;;;;;;;4.30;2.30;;;;;;;18.81;63.34;97369.78;5024259;28;20045;-62
2022/09/12 09:36:16;;;;;;;9.23;2.80;;;;;;;18.97;65.22;97377.69;5036664;28;20036;-61
2022/09/12 09:38:49;;;;;;;6.80;2.55;;;;;;;19.00;63.87;97373.50;5020172;28;20467;-61
2022/09/12 09:41:29;;;;;;;4.93;2.50;;;;;;;19.10;64.35;97376.88;5023413;28;20043;-63
2022/09/12 09:43:57;;;;;;;4.03;2.42;;;;;;;19.18;60.85;97380.84;5019884;28;20294;-63
2022/09/12 09:46:24;;;;;;;8.82;3.42;;;;;;;19.28;59.69;97371.56;5023545;28;20052;-63
2022/09/12 09:48:52;;;;;;;5.35;2.10;;;;;;;19.35;58.79;97376.63;5023895;28;20491;-63
2022/09/12 09:51:26;;;;;;;4.22;2.60;;;;;;;19.39;57.56;97380.38;5033218;28;20045;-62
2022/09/12 09:54:00;;;;;;;3.60;2.03;;;;;;;19.48;56.50;97369.44;5029547;28;20037;-62
2022/09/12 09:56:39;;;;;;;5.30;1.63;;;;;;;19.58;57.11;97376.63;5019785;28;20073;-62
2022/09/12 09:59:16;;;;;;;4.05;2.00;;;;;;;19.66;56.70;97370.41;5017070;28;20042;-63
2022/09/12 10:01:47;;;;;;;2.40;1.67;;;;;;;19.66;56.42;97369.59;5005886;28;20487;-62
2022/09/12 10:04:20;;;;;;;2.67;1.90;;;;;;;19.76;56.98;97369.34;5006040;28;20046;-62
2022/09/12 10:06:49;;;;;;;5.68;1.83;;;;;;;19.84;55.90;97373.28;5008824;28;20046;-63
2022/09/12 10:09:19;;;;;;;3.08;1.85;;;;;;;19.90;55.57;97369.25;5032881;28;20124;-63
2022/09/12 10:11:46;;;;;;;3.30;1.90;;;;;;;19.94;54.31;97369.47;5018854;28;20044;-62
2022/09/12 10:14:30;;;;;;;2.70;1.70;;;;;;;20.04;55.82;97363.72;5029124;28;20158;-63
2022/09/12 10:16:58;;;;;;;4.93;1.90;;;;;;;20.18;55.17;97362.81;5033124;28;20449;-62
2022/09/12 10:19:37;;;;;;;4.20;1.60;;;;;;;20.32;55.25;97357.22;5033507;28;20043;-63
2022/09/12 10:22:05;;;;;;;6.13;1.52;;;;;;;20.28;53.47;97351.56;5023397;28;20041;-62
2022/09/12 10:24:40;;;;;;;2.95;1.60;;;;;;;20.32;53.57;97358.06;5023716;28;20116;-62
2022/09/12 10:27:15;;;;;;;3.95;1.60;;;;;;;20.31;51.46;97356.41;5027991;28;20046;-63
2022/09/12 10:29:44;;;;;;;2.90;1.73;;;;;;;20.31;52.92;97366.59;5027492;28;20489;-62
2022/09/12 10:32:20;;;;;;;2.90;1.65;;;;;;;20.29;50.44;97361.44;5029230;28;20050;-63
2022/09/12 10:34:46;;;;;;;2.30;1.30;;;;;;;20.35;51.11;97357.41;5036922;28;20049;-62
2022/09/12 10:37:22;;;;;;;4.47;2.00;;;;;;;20.39;50.07;97355.63;5026431;28;20051;-63
2022/09/12 10:39:55;;;;;;;4.68;2.30;;;;;;;20.46;53.20;97354.38;5024727;28;20042;-63
2022/09/12 10:42:51;;;;;;;3.00;1.88;;;;;;;20.69;49.26;97352.34;5025779;28;20240;-62
2022/09/12 10:45:21;;;;;;;3.97;1.60;;;;;;;20.76;48.44;97347.19;5027096;28;20051;-62
2022/09/12 10:47:48;;;;;;;3.28;1.80;;;;;;;20.87;48.96;97350.50;5022603;28;20078;-63
2022/09/12 10:50:25;;;;;;;3.35;1.50;;;;;;;20.90;49.41;97349.84;5033473;28;20532;-61
2022/09/12 10:52:53;;;;;;;3.53;1.45;;;;;;;20.95;47.72;97351.63;5023326;28;20042;-63
2022/09/12 10:55:30;;;;;;;2.13;1.48;;;;;;;20.95;47.28;97342.56;5023525;28;20049;-63
2022/09/12 10:58:28;;;;;;;3.83;1.50;;;;;;;21.11;48.26;97343.72;5026813;28;20045;-63
2022/09/12 11:01:08;;;;;;;2.58;1.40;;;;;;;21.18;47.33;97335.78;5031766;28;20125;-61
2022/09/12 11:04:01;;;;;;;1.85;1.20;;;;;;;21.18;45.44;97327.53;5027071;28;20053;-63
2022/09/12 11:06:43;;;;;;;2.90;1.48;;;;;;;21.32;48.21;97329.31;5025035;28;20128;-63
2022/09/12 11:09:25;;;;;;;4.05;1.60;;;;;;;21.36;48.30;97318.44;5027181;28;20432;-63
2022/09/12 11:12:03;;;;;;;3.95;1.95;;;;;;;21.36;45.90;97313.75;5019102;28;20127;-62
2022/09/12 11:14:35;;;;;;;3.58;1.30;;;;;;;21.30;46.42;97306.81;5030094;28;20140;-62
2022/09/12 11:17:16;;;;;;;2.67;1.50;;;;;;;21.39;46.37;97309.53;5026143;28;20045;-63
2022/09/12 11:20:01;;;;;;;1.95;1.20;;;;;;;21.39;47.10;97299.34;5033633;28;20095;-63
2022/09/12 11:23:03;;;;;;;2.38;1.30;;;;;;;21.51;45.74;97303.38;5025575;28;20046;-62
2022/09/12 11:26:02;;;;;;;2.28;1.15;;;;;;;21.36;44.45;97304.69;5026270;28;20102;-62
2022/09/12 11:28:55;;;;;;;1.63;1.02;;;;;;;21.47;45.27;97305.97;5026334;28;20517;-61
2022/09/12 11:31:39;;;;;;;2.10;1.00;;;;;;;21.69;44.73;97302.22;5025808;28;20461;-63
2022/09/12 11:34:10;;;;;;;2.40;1.23;;;;;;;21.78;44.23;97310.47;5026054;28;20053;-62
2022/09/12 11:36:47;;;;;;;3.37;1.20;;;;;;;21.81;43.30;97303.50;5026245;28;20037;-63
2022/09/12 11:39:16;;;;;;;2.03;1.40;;;;;;;21.89;45.10;97302.69;5025525;28;20045;-63
2022/09/12 11:41:49;;;;;;;2.38;1.50;;;;;;;21.88;42.75;97297.50;5028654;28;20049;-63
2022/09/12 11:44:27;;;;;;;2.15;0.90;;;;;;;21.80;42.06;97304.66;5028663;28;20098;-63
2022/09/12 11:46:53;;;;;;;2.30;1.10;;;;;;;21.96;41.65;97294.72;5024748;28;20380;-63
2022/09/12 11:49:40;;;;;;;2.42;0.90;;;;;;;21.85;41.14;97295.41;5025803;28;20049;-63
2022/09/12 11:52:14;;;;;;;1.55;0.85;;;;;;;21.94;40.77;97296.19;5025185;28;20045;-63